sensor_id;sensor_type;location;lat;lon;timestamp;pressure;altitude;pressure_sealevel;temperature;humidity
55301;BME280;58302;51.446;-2.000;2023-02-14T00:01:07;102269.38;;;2.75;100.00
55301;BME280;58302;51.446;-2.000;2023-02-14T00:03:33;102262.16;;;2.75;100.00
55301;BME280;58302;51.446;-2.000;2023-02-14T00:06:11;102268.84;;;2.79;100.00
55301;BME280;58302;51.446;-2.000;2023-02-14T00:08:37;102258.28;;;2.78;100.00
55301;BME280;58302;51.446;-2.000;2023-02-14T00:11:06;102251.94;;;2.71;100.00
55301;BME280;58302;51.446;-2.000;2023-02-14T00:13:33;102251.09;;;2.70;100.00
55301;BME280;58302;51.446;-2.000;2023-02-14T00:15:59;102255.97;;;2.75;100.00
55301;BME280;58302;51.446;-2.000;2023-02-14T00:18:25;102254.59;;;2.71;100.00
55301;BME280;58302;51.446;-2.000;2023-02-14T00:21:10;102255.28;;;2.64;100.00
55301;BME280;58302;51.446;-2.000;2023-02-14T00:23:36;102254.13;;;2.59;100.00
55301;BME280;58302;51.446;-2.000;2023-02-14T00:26:02;102257.63;;;2.68;100.00
55301;BME280;58302;51.446;-2.000;2023-02-14T00:28:28;102262.63;;;2.79;100.00
55301;BME280;58302;51.446;-2.000;2023-02-14T00:30:56;102255.41;;;2.79;100.00
55301;BME280;58302;51.446;-2.000;2023-02-14T00:33:22;102258.44;;;2.84;100.00
55301;BME280;58302;51.446;-2.000;2023-02-14T00:35:48;102246.88;;;2.92;100.00
55301;BME280;58302;51.446;-2.000;2023-02-14T00:38:13;102255.41;;;2.96;100.00
55301;BME280;58302;51.446;-2.000;2023-02-14T00:40:39;102239.97;;;2.89;100.00
55301;BME280;58302;51.446;-2.000;2023-02-14T00:43:05;102244.69;;;2.87;100.00
55301;BME280;58302;51.446;-2.000;2023-02-14T00:45:31;102249.88;;;2.89;100.00
55301;BME280;58302;51.446;-2.000;2023-02-14T00:47:57;102244.00;;;2.94;100.00
55301;BME280;58302;51.446;-2.000;2023-02-14T00:50:23;102238.63;;;2.94;100.00
55301;BME280;58302;51.446;-2.000;2023-02-14T00:52:49;102235.94;;;2.94;100.00
55301;BME280;58302;51.446;-2.000;2023-02-14T00:55:15;102229.91;;;2.92;100.00
55301;BME280;58302;51.446;-2.000;2023-02-14T00:57:41;102235.13;;;2.93;100.00
55301;BME280;58302;51.446;-2.000;2023-02-14T01:00:07;102235.28;;;2.83;100.00
55301;BME280;58302;51.446;-2.000;2023-02-14T01:02:33;102238.63;;;2.85;100.00
55301;BME280;58302;51.446;-2.000;2023-02-14T01:04:59;102236.31;;;2.82;100.00
55301;BME280;58302;51.446;-2.000;2023-02-14T01:07:25;102235.09;;;2.85;100.00
55301;BME280;58302;51.446;-2.000;2023-02-14T01:09:51;102234.78;;;2.80;100.00
55301;BME280;58302;51.446;-2.000;2023-02-14T01:12:17;102228.75;;;2.86;100.00
55301;BME280;58302;51.446;-2.000;2023-02-14T01:14:43;102228.41;;;2.89;100.00
55301;BME280;58302;51.446;-2.000;2023-02-14T01:17:09;102236.13;;;2.92;100.00
55301;BME280;58302;51.446;-2.000;2023-02-14T01:19:35;102239.63;;;3.01;100.00
55301;BME280;58302;51.446;-2.000;2023-02-14T01:22:01;102236.41;;;3.05;100.00
55301;BME280;58302;51.446;-2.000;2023-02-14T01:24:27;102228.03;;;3.08;100.00
55301;BME280;58302;51.446;-2.000;2023-02-14T01:26:53;102232.38;;;3.09;100.00
55301;BME280;58302;51.446;-2.000;2023-02-14T01:29:19;102231.88;;;3.14;100.00
55301;BME280;58302;51.446;-2.000;2023-02-14T01:31:45;102234.38;;;3.15;100.00
55301;BME280;58302;51.446;-2.000;2023-02-14T01:34:13;102234.19;;;3.17;100.00
55301;BME280;58302;51.446;-2.000;2023-02-14T01:36:39;102235.03;;;3.17;100.00
55301;BME280;58302;51.446;-2.000;2023-02-14T01:39:09;102238.09;;;3.14;100.00
55301;BME280;58302;51.446;-2.000;2023-02-14T01:41:37;102239.25;;;3.12;100.00
55301;BME280;58302;51.446;-2.000;2023-02-14T01:46:34;102241.63;;;3.07;100.00
55301;BME280;58302;51.446;-2.000;2023-02-14T01:49:08;102233.88;;;3.12;100.00
55301;BME280;58302;51.446;-2.000;2023-02-14T01:51:35;102232.72;;;3.14;100.00
55301;BME280;58302;51.446;-2.000;2023-02-14T01:54:05;102236.56;;;3.20;100.00
55301;BME280;58302;51.446;-2.000;2023-02-14T01:56:39;102238.22;;;3.13;100.00
55301;BME280;58302;51.446;-2.000;2023-02-14T01:59:09;102240.25;;;3.19;100.00
55301;BME280;58302;51.446;-2.000;2023-02-14T02:01:37;102235.34;;;3.31;100.00
55301;BME280;58302;51.446;-2.000;2023-02-14T02:04:10;102243.03;;;3.42;100.00
55301;BME280;58302;51.446;-2.000;2023-02-14T02:06:42;102242.50;;;3.47;100.00
55301;BME280;58302;51.446;-2.000;2023-02-14T02:11:45;102248.88;;;3.46;100.00
55301;BME280;58302;51.446;-2.000;2023-02-14T02:14:14;102248.03;;;3.53;100.00
55301;BME280;58302;51.446;-2.000;2023-02-14T02:19:33;102259.41;;;3.63;100.00
55301;BME280;58302;51.446;-2.000;2023-02-14T02:36:58;102259.78;;;3.91;100.00
55301;BME280;58302;51.446;-2.000;2023-02-14T02:39:48;102262.47;;;3.91;100.00
55301;BME280;58302;51.446;-2.000;2023-02-14T02:42:45;102274.88;;;3.92;100.00
55301;BME280;58302;51.446;-2.000;2023-02-14T02:45:45;102277.06;;;3.97;100.00
55301;BME280;58302;51.446;-2.000;2023-02-14T02:48:40;102274.31;;;4.05;100.00
55301;BME280;58302;51.446;-2.000;2023-02-14T02:51:15;102268.22;;;4.11;100.00
55301;BME280;58302;51.446;-2.000;2023-02-14T02:54:10;102271.22;;;4.16;100.00
55301;BME280;58302;51.446;-2.000;2023-02-14T02:56:45;102273.03;;;4.24;100.00
55301;BME280;58302;51.446;-2.000;2023-02-14T02:59:29;102267.28;;;4.27;100.00
55301;BME280;58302;51.446;-2.000;2023-02-14T03:02:10;102262.91;;;4.26;100.00
55301;BME280;58302;51.446;-2.000;2023-02-14T03:04:41;102268.59;;;4.31;100.00
55301;BME280;58302;51.446;-2.000;2023-02-14T03:22:20;102252.78;;;4.28;100.00
55301;BME280;58302;51.446;-2.000;2023-02-14T03:27:25;102250.47;;;4.25;100.00
55301;BME280;58302;51.446;-2.000;2023-02-14T03:30:19;102237.66;;;4.27;100.00
55301;BME280;58302;51.446;-2.000;2023-02-14T03:33:02;102246.56;;;4.28;100.00
55301;BME280;58302;51.446;-2.000;2023-02-14T03:38:08;102242.69;;;4.30;100.00
55301;BME280;58302;51.446;-2.000;2023-02-14T03:45:45;102250.25;;;4.35;100.00
55301;BME280;58302;51.446;-2.000;2023-02-14T03:48:13;102242.09;;;4.43;100.00
55301;BME280;58302;51.446;-2.000;2023-02-14T03:50:43;102241.38;;;4.49;100.00
55301;BME280;58302;51.446;-2.000;2023-02-14T03:53:12;102244.25;;;4.47;100.00
55301;BME280;58302;51.446;-2.000;2023-02-14T03:56:01;102249.94;;;4.53;100.00
55301;BME280;58302;51.446;-2.000;2023-02-14T03:58:35;102244.88;;;4.49;100.00
55301;BME280;58302;51.446;-2.000;2023-02-14T04:01:12;102245.91;;;4.48;100.00
55301;BME280;58302;51.446;-2.000;2023-02-14T04:03:40;102240.34;;;4.50;100.00
55301;BME280;58302;51.446;-2.000;2023-02-14T04:06:07;102243.91;;;4.51;100.00
55301;BME280;58302;51.446;-2.000;2023-02-14T04:08:33;102245.91;;;4.48;100.00
55301;BME280;58302;51.446;-2.000;2023-02-14T04:11:01;102228.94;;;4.48;100.00
55301;BME280;58302;51.446;-2.000;2023-02-14T04:13:28;102217.13;;;4.49;100.00
55301;BME280;58302;51.446;-2.000;2023-02-14T04:15:54;102216.31;;;4.48;100.00
55301;BME280;58302;51.446;-2.000;2023-02-14T04:18:20;102221.34;;;4.52;100.00
55301;BME280;58302;51.446;-2.000;2023-02-14T04:21:05;102221.16;;;4.53;100.00
55301;BME280;58302;51.446;-2.000;2023-02-14T04:23:31;102222.63;;;4.56;100.00
55301;BME280;58302;51.446;-2.000;2023-02-14T04:25:57;102220.59;;;4.58;100.00
55301;BME280;58302;51.446;-2.000;2023-02-14T04:28:23;102218.38;;;4.61;100.00
55301;BME280;58302;51.446;-2.000;2023-02-14T04:30:49;102218.66;;;4.66;100.00
55301;BME280;58302;51.446;-2.000;2023-02-14T04:33:15;102227.84;;;4.72;100.00
55301;BME280;58302;51.446;-2.000;2023-02-14T04:35:40;102226.88;;;4.73;100.00
55301;BME280;58302;51.446;-2.000;2023-02-14T04:38:06;102219.63;;;4.73;100.00
55301;BME280;58302;51.446;-2.000;2023-02-14T04:40:32;102221.56;;;4.80;100.00
55301;BME280;58302;51.446;-2.000;2023-02-14T04:42:58;102224.91;;;4.82;100.00
55301;BME280;58302;51.446;-2.000;2023-02-14T04:45:26;102222.03;;;4.83;100.00
55301;BME280;58302;51.446;-2.000;2023-02-14T04:47:52;102228.09;;;4.85;100.00
55301;BME280;58302;51.446;-2.000;2023-02-14T04:50:18;102228.66;;;4.95;100.00
55301;BME280;58302;51.446;-2.000;2023-02-14T04:52:44;102231.63;;;5.00;100.00
55301;BME280;58302;51.446;-2.000;2023-02-14T04:55:10;102242.31;;;5.09;100.00
55301;BME280;58302;51.446;-2.000;2023-02-14T04:57:36;102241.97;;;5.12;100.00
55301;BME280;58302;51.446;-2.000;2023-02-14T05:00:03;102230.59;;;5.16;100.00
55301;BME280;58302;51.446;-2.000;2023-02-14T05:02:29;102230.25;;;5.19;100.00
55301;BME280;58302;51.446;-2.000;2023-02-14T05:04:55;102232.38;;;5.24;100.00
55301;BME280;58302;51.446;-2.000;2023-02-14T05:07:21;102236.09;;;5.23;100.00
55301;BME280;58302;51.446;-2.000;2023-02-14T05:09:46;102236.09;;;5.23;100.00
55301;BME280;58302;51.446;-2.000;2023-02-14T05:12:14;102236.94;;;5.23;100.00
55301;BME280;58302;51.446;-2.000;2023-02-14T05:14:40;102231.34;;;5.25;100.00
55301;BME280;58302;51.446;-2.000;2023-02-14T05:17:06;102228.84;;;5.23;100.00
55301;BME280;58302;51.446;-2.000;2023-02-14T05:19:32;102222.78;;;5.21;100.00
55301;BME280;58302;51.446;-2.000;2023-02-14T05:21:58;102227.00;;;5.24;100.00
55301;BME280;58302;51.446;-2.000;2023-02-14T05:24:24;102228.47;;;5.26;100.00
55301;BME280;58302;51.446;-2.000;2023-02-14T05:26:50;102225.13;;;5.24;100.00
55301;BME280;58302;51.446;-2.000;2023-02-14T05:29:16;102224.56;;;5.29;100.00
55301;BME280;58302;51.446;-2.000;2023-02-14T05:31:42;102223.91;;;5.27;100.00
55301;BME280;58302;51.446;-2.000;2023-02-14T05:34:08;102216.69;;;5.27;100.00
55301;BME280;58302;51.446;-2.000;2023-02-14T05:36:34;102212.97;;;5.28;100.00
55301;BME280;58302;51.446;-2.000;2023-02-14T05:39:00;102209.72;;;5.33;100.00
55301;BME280;58302;51.446;-2.000;2023-02-14T05:41:26;102216.22;;;5.39;100.00
55301;BME280;58302;51.446;-2.000;2023-02-14T05:43:52;102222.44;;;5.39;100.00
55301;BME280;58302;51.446;-2.000;2023-02-14T05:46:17;102219.06;;;5.37;100.00
55301;BME280;58302;51.446;-2.000;2023-02-14T05:48:43;102219.75;;;5.39;100.00
55301;BME280;58302;51.446;-2.000;2023-02-14T05:51:10;102218.03;;;5.38;100.00
55301;BME280;58302;51.446;-2.000;2023-02-14T05:53:37;102224.31;;;5.39;100.00
55301;BME280;58302;51.446;-2.000;2023-02-14T05:56:03;102215.63;;;5.43;100.00
55301;BME280;58302;51.446;-2.000;2023-02-14T05:58:30;102220.03;;;5.44;100.00
55301;BME280;58302;51.446;-2.000;2023-02-14T06:00:57;102217.69;;;5.41;100.00
55301;BME280;58302;51.446;-2.000;2023-02-14T06:03:24;102223.06;;;5.41;100.00
55301;BME280;58302;51.446;-2.000;2023-02-14T06:05:50;102219.16;;;5.44;100.00
55301;BME280;58302;51.446;-2.000;2023-02-14T06:08:16;102219.63;;;5.47;100.00
55301;BME280;58302;51.446;-2.000;2023-02-14T06:10:42;102226.41;;;5.43;100.00
55301;BME280;58302;51.446;-2.000;2023-02-14T06:13:08;102213.59;;;5.45;100.00
55301;BME280;58302;51.446;-2.000;2023-02-14T06:15:36;102212.56;;;5.46;100.00
55301;BME280;58302;51.446;-2.000;2023-02-14T06:18:03;102217.59;;;5.49;100.00
55301;BME280;58302;51.446;-2.000;2023-02-14T06:20:29;102217.75;;;5.48;100.00
55301;BME280;58302;51.446;-2.000;2023-02-14T06:22:55;102217.13;;;5.46;100.00
55301;BME280;58302;51.446;-2.000;2023-02-14T06:25:22;102217.13;;;5.46;100.00
55301;BME280;58302;51.446;-2.000;2023-02-14T06:27:49;102219.16;;;5.44;100.00
55301;BME280;58302;51.446;-2.000;2023-02-14T06:30:18;102219.53;;;5.41;100.00
55301;BME280;58302;51.446;-2.000;2023-02-14T06:32:44;102217.88;;;5.40;100.00
55301;BME280;58302;51.446;-2.000;2023-02-14T06:35:10;102220.09;;;5.36;100.00
55301;BME280;58302;51.446;-2.000;2023-02-14T06:37:36;102222.31;;;5.33;100.00
55301;BME280;58302;51.446;-2.000;2023-02-14T06:40:03;102225.88;;;5.33;100.00
55301;BME280;58302;51.446;-2.000;2023-02-14T06:42:30;102221.13;;;5.35;100.00
55301;BME280;58302;51.446;-2.000;2023-02-14T06:44:55;102221.78;;;5.37;100.00
55301;BME280;58302;51.446;-2.000;2023-02-14T06:47:21;102222.53;;;5.31;100.00
55301;BME280;58302;51.446;-2.000;2023-02-14T06:49:47;102220.03;;;5.29;100.00
55301;BME280;58302;51.446;-2.000;2023-02-14T06:52:13;102215.09;;;5.33;100.00
55301;BME280;58302;51.446;-2.000;2023-02-14T06:54:39;102217.13;;;5.31;100.00
55301;BME280;58302;51.446;-2.000;2023-02-14T06:57:05;102218.78;;;5.32;100.00
55301;BME280;58302;51.446;-2.000;2023-02-14T06:59:31;102216.50;;;5.29;100.00
55301;BME280;58302;51.446;-2.000;2023-02-14T07:01:57;102222.91;;;5.28;100.00
55301;BME280;58302;51.446;-2.000;2023-02-14T07:04:23;102216.84;;;5.26;100.00
55301;BME280;58302;51.446;-2.000;2023-02-14T07:06:49;102220.22;;;5.28;100.00
55301;BME280;58302;51.446;-2.000;2023-02-14T07:09:15;102228.94;;;5.30;100.00
55301;BME280;58302;51.446;-2.000;2023-02-14T07:11:43;102231.00;;;5.28;100.00
55301;BME280;58302;51.446;-2.000;2023-02-14T07:14:10;102232.88;;;5.27;100.00
55301;BME280;58302;51.446;-2.000;2023-02-14T07:16:37;102229.97;;;5.29;100.00
55301;BME280;58302;51.446;-2.000;2023-02-14T07:19:03;102221.41;;;5.25;100.00
55301;BME280;58302;51.446;-2.000;2023-02-14T07:21:29;102232.66;;;5.29;100.00
55301;BME280;58302;51.446;-2.000;2023-02-14T07:23:55;102236.56;;;5.26;100.00
55301;BME280;58302;51.446;-2.000;2023-02-14T07:26:21;102233.69;;;5.28;100.00
55301;BME280;58302;51.446;-2.000;2023-02-14T07:28:47;102239.09;;;5.28;100.00
55301;BME280;58302;51.446;-2.000;2023-02-14T07:31:14;102241.94;;;5.26;100.00
55301;BME280;58302;51.446;-2.000;2023-02-14T07:33:40;102239.25;;;5.26;100.00
55301;BME280;58302;51.446;-2.000;2023-02-14T07:36:07;102243.16;;;5.24;100.00
55301;BME280;58302;51.446;-2.000;2023-02-14T07:38:34;102242.34;;;5.23;100.00
55301;BME280;58302;51.446;-2.000;2023-02-14T07:41:00;102240.66;;;5.22;100.00
55301;BME280;58302;51.446;-2.000;2023-02-14T07:43:26;102244.19;;;5.23;100.00
55301;BME280;58302;51.446;-2.000;2023-02-14T07:45:52;102242.78;;;5.27;100.00
55301;BME280;58302;51.446;-2.000;2023-02-14T07:48:18;102235.28;;;5.22;100.00
55301;BME280;58302;51.446;-2.000;2023-02-14T07:50:44;102235.28;;;5.22;100.00
55301;BME280;58302;51.446;-2.000;2023-02-14T07:53:10;102233.56;;;5.21;100.00
55301;BME280;58302;51.446;-2.000;2023-02-14T07:55:36;102237.97;;;5.22;100.00
55301;BME280;58302;51.446;-2.000;2023-02-14T07:58:04;102235.56;;;5.27;100.00
55301;BME280;58302;51.446;-2.000;2023-02-14T08:00:30;102241.59;;;5.29;100.00
55301;BME280;58302;51.446;-2.000;2023-02-14T08:02:56;102240.75;;;5.29;100.00
55301;BME280;58302;51.446;-2.000;2023-02-14T08:05:22;102238.69;;;5.31;100.00
55301;BME280;58302;51.446;-2.000;2023-02-14T08:07:48;102239.09;;;5.28;100.00
55301;BME280;58302;51.446;-2.000;2023-02-14T08:10:15;102237.22;;;5.28;100.00
55301;BME280;58302;51.446;-2.000;2023-02-14T08:12:41;102238.06;;;5.29;100.00
55301;BME280;58302;51.446;-2.000;2023-02-14T08:15:31;102229.59;;;5.32;100.00
55301;BME280;58302;51.446;-2.000;2023-02-14T08:18:16;102220.50;;;5.33;100.00
55301;BME280;58302;51.446;-2.000;2023-02-14T08:20:44;102223.91;;;5.42;100.00
55301;BME280;58302;51.446;-2.000;2023-02-14T08:23:11;102228.81;;;5.53;100.00
55301;BME280;58302;51.446;-2.000;2023-02-14T08:25:37;102234.41;;;5.51;100.00
55301;BME280;58302;51.446;-2.000;2023-02-14T08:28:04;102227.41;;;5.72;100.00
55301;BME280;58302;51.446;-2.000;2023-02-14T08:30:31;102227.34;;;5.87;100.00
55301;BME280;58302;51.446;-2.000;2023-02-14T08:32:57;102233.16;;;5.84;100.00
55301;BME280;58302;51.446;-2.000;2023-02-14T08:35:23;102228.25;;;5.72;100.00
55301;BME280;58302;51.446;-2.000;2023-02-14T08:37:49;102233.81;;;5.71;100.00
55301;BME280;58302;51.446;-2.000;2023-02-14T08:40:15;102232.84;;;5.93;100.00
55301;BME280;58302;51.446;-2.000;2023-02-14T08:42:41;102234.53;;;6.37;100.00
55301;BME280;58302;51.446;-2.000;2023-02-14T08:45:07;102241.47;;;6.68;100.00
55301;BME280;58302;51.446;-2.000;2023-02-14T08:47:33;102231.16;;;7.06;100.00
55301;BME280;58302;51.446;-2.000;2023-02-14T08:50:05;102227.00;;;7.45;100.00
55301;BME280;58302;51.446;-2.000;2023-02-14T08:52:31;102224.66;;;7.76;100.00
55301;BME280;58302;51.446;-2.000;2023-02-14T08:54:57;102224.09;;;8.07;100.00
55301;BME280;58302;51.446;-2.000;2023-02-14T08:57:23;102223.09;;;8.28;100.00
55301;BME280;58302;51.446;-2.000;2023-02-14T08:59:49;102227.97;;;8.46;100.00
55301;BME280;58302;51.446;-2.000;2023-02-14T09:02:15;102221.06;;;8.57;100.00
55301;BME280;58302;51.446;-2.000;2023-02-14T09:04:41;102217.31;;;8.38;100.00
55301;BME280;58302;51.446;-2.000;2023-02-14T09:07:07;102223.53;;;8.32;100.00
55301;BME280;58302;51.446;-2.000;2023-02-14T09:09:33;102214.59;;;8.38;100.00
55301;BME280;58302;51.446;-2.000;2023-02-14T09:12:03;102201.06;;;8.51;100.00
55301;BME280;58302;51.446;-2.000;2023-02-14T09:14:29;102210.66;;;8.74;100.00
55301;BME280;58302;51.446;-2.000;2023-02-14T09:16:59;102214.81;;;8.69;100.00
55301;BME280;58302;51.446;-2.000;2023-02-14T09:19:26;102207.75;;;8.68;100.00
55301;BME280;58302;51.446;-2.000;2023-02-14T09:21:52;102208.13;;;8.72;100.00
55301;BME280;58302;51.446;-2.000;2023-02-14T09:24:17;102210.22;;;8.96;100.00
55301;BME280;58302;51.446;-2.000;2023-02-14T09:26:44;102205.78;;;9.15;100.00
55301;BME280;58302;51.446;-2.000;2023-02-14T09:29:09;102202.88;;;9.10;100.00
55301;BME280;58302;51.446;-2.000;2023-02-14T09:31:37;102203.31;;;8.94;100.00
55301;BME280;58302;51.446;-2.000;2023-02-14T09:34:04;102199.81;;;8.74;100.00
55301;BME280;58302;51.446;-2.000;2023-02-14T09:36:30;102192.72;;;8.66;100.00
55301;BME280;58302;51.446;-2.000;2023-02-14T09:38:56;102190.59;;;8.94;100.00
55301;BME280;58302;51.446;-2.000;2023-02-14T09:43:55;102199.94;;;9.05;100.00
55301;BME280;58302;51.446;-2.000;2023-02-14T09:46:25;102199.81;;;8.74;100.00
55301;BME280;58302;51.446;-2.000;2023-02-14T09:48:53;102196.28;;;8.47;100.00
55301;BME280;58302;51.446;-2.000;2023-02-14T09:51:23;102206.91;;;8.41;100.00
55301;BME280;58302;51.446;-2.000;2023-02-14T09:53:51;102209.19;;;8.58;100.00
55301;BME280;58302;51.446;-2.000;2023-02-14T09:56:31;102210.41;;;8.35;100.00
55301;BME280;58302;51.446;-2.000;2023-02-14T10:01:33;102218.50;;;8.09;100.00
55301;BME280;58302;51.446;-2.000;2023-02-14T10:06:44;102211.81;;;8.18;100.00
55301;BME280;58302;51.446;-2.000;2023-02-14T10:11:56;102218.94;;;8.26;100.00
55301;BME280;58302;51.446;-2.000;2023-02-14T10:14:26;102217.69;;;8.35;100.00
55301;BME280;58302;51.446;-2.000;2023-02-14T10:17:00;102214.13;;;8.34;100.00
55301;BME280;58302;51.446;-2.000;2023-02-14T10:19:39;102218.56;;;8.49;100.00
55301;BME280;58302;51.446;-2.000;2023-02-14T10:22:13;102219.41;;;8.56;100.00
55301;BME280;58302;51.446;-2.000;2023-02-14T10:24:44;102221.91;;;8.57;100.00
55301;BME280;58302;51.446;-2.000;2023-02-14T10:27:31;102213.97;;;8.49;100.00
55301;BME280;58302;51.446;-2.000;2023-02-14T10:29:59;102211.88;;;8.44;100.00
55301;BME280;58302;51.446;-2.000;2023-02-14T10:32:42;102203.88;;;9.22;100.00
55301;BME280;58302;51.446;-2.000;2023-02-14T10:35:22;102201.34;;;9.28;100.00
55301;BME280;58302;51.446;-2.000;2023-02-14T10:38:18;102195.72;;;9.22;100.00
55301;BME280;58302;51.446;-2.000;2023-02-14T10:43:35;102191.84;;;10.01;100.00
55301;BME280;58302;51.446;-2.000;2023-02-14T10:52:20;102193.53;;;10.34;100.00
55301;BME280;58302;51.446;-2.000;2023-02-14T10:54:27;102190.19;;;10.00;100.00
55301;BME280;58302;51.446;-2.000;2023-02-14T10:57:10;102194.53;;;9.63;100.00
55301;BME280;58302;51.446;-2.000;2023-02-14T11:02:20;102198.50;;;9.09;100.00
55301;BME280;58302;51.446;-2.000;2023-02-14T11:04:48;102197.44;;;9.10;100.00
55301;BME280;58302;51.446;-2.000;2023-02-14T11:07:16;102202.06;;;9.61;100.00
55301;BME280;58302;51.446;-2.000;2023-02-14T11:09:43;102205.94;;;10.23;100.00
55301;BME280;58302;51.446;-2.000;2023-02-14T11:12:09;102193.34;;;10.79;100.00
55301;BME280;58302;51.446;-2.000;2023-02-14T11:14:38;102197.53;;;10.57;100.00
55301;BME280;58302;51.446;-2.000;2023-02-14T11:17:26;102188.13;;;10.52;100.00
55301;BME280;58302;51.446;-2.000;2023-02-14T11:20:01;102191.22;;;10.81;100.00
55301;BME280;58302;51.446;-2.000;2023-02-14T11:22:32;102180.28;;;11.24;100.00
55301;BME280;58302;51.446;-2.000;2023-02-14T11:25:12;102175.13;;;11.53;100.00
55301;BME280;58302;51.446;-2.000;2023-02-14T11:27:47;102167.72;;;11.60;100.00
55301;BME280;58302;51.446;-2.000;2023-02-14T11:30:33;102166.19;;;11.82;100.00
55301;BME280;58302;51.446;-2.000;2023-02-14T11:33:00;102166.69;;;12.03;100.00
55301;BME280;58302;51.446;-2.000;2023-02-14T11:35:28;102155.72;;;11.79;100.00
55301;BME280;58302;51.446;-2.000;2023-02-14T11:38:04;102163.13;;;11.91;100.00
55301;BME280;58302;51.446;-2.000;2023-02-14T11:40:36;102148.00;;;11.76;100.00
55301;BME280;58302;51.446;-2.000;2023-02-14T11:45:39;102141.41;;;12.26;100.00
55301;BME280;58302;51.446;-2.000;2023-02-14T11:48:22;102132.06;;;12.45;100.00
55301;BME280;58302;51.446;-2.000;2023-02-14T11:51:08;102130.88;;;12.53;100.00
55301;BME280;58302;51.446;-2.000;2023-02-14T11:53:46;102120.00;;;13.28;100.00
55301;BME280;58302;51.446;-2.000;2023-02-14T11:56:14;102119.81;;;13.75;100.00
55301;BME280;58302;51.446;-2.000;2023-02-14T11:59:02;102110.72;;;14.03;100.00
55301;BME280;58302;51.446;-2.000;2023-02-14T12:01:31;102109.34;;;13.72;100.00
55301;BME280;58302;51.446;-2.000;2023-02-14T12:04:11;102117.47;;;13.67;100.00
55301;BME280;58302;51.446;-2.000;2023-02-14T12:06:38;102106.81;;;13.82;100.00
55301;BME280;58302;51.446;-2.000;2023-02-14T12:12:00;102097.59;;;13.71;100.00
55301;BME280;58302;51.446;-2.000;2023-02-14T12:14:37;102100.09;;;13.73;100.00
55301;BME280;58302;51.446;-2.000;2023-02-14T12:17:14;102092.97;;;13.89;100.00
55301;BME280;58302;51.446;-2.000;2023-02-14T12:19:54;102093.75;;;14.18;100.00
55301;BME280;58302;51.446;-2.000;2023-02-14T12:22:31;102093.91;;;13.49;100.00
55301;BME280;58302;51.446;-2.000;2023-02-14T12:25:03;102082.84;;;13.56;100.00
55301;BME280;58302;51.446;-2.000;2023-02-14T12:27:48;102072.94;;;14.17;100.00
55301;BME280;58302;51.446;-2.000;2023-02-14T12:30:18;102078.91;;;14.31;100.00
55301;BME280;58302;51.446;-2.000;2023-02-14T12:32:50;102071.53;;;14.14;100.00
55301;BME280;58302;51.446;-2.000;2023-02-14T12:44:12;102060.91;;;13.67;100.00
55301;BME280;58302;51.446;-2.000;2023-02-14T12:46:47;102062.19;;;13.31;100.00
55301;BME280;58302;51.446;-2.000;2023-02-14T12:54:47;102064.91;;;13.31;100.00
55301;BME280;58302;51.446;-2.000;2023-02-14T13:10:28;102051.00;;;13.33;100.00
55301;BME280;58302;51.446;-2.000;2023-02-14T13:13:06;102047.03;;;13.69;100.00
55301;BME280;58302;51.446;-2.000;2023-02-14T13:15:52;102043.97;;;13.82;100.00
55301;BME280;58302;51.446;-2.000;2023-02-14T13:21:18;102039.00;;;13.96;100.00
55301;BME280;58302;51.446;-2.000;2023-02-14T13:23:48;102038.66;;;13.92;100.00
55301;BME280;58302;51.446;-2.000;2023-02-14T13:26:21;102029.38;;;13.93;100.00
55301;BME280;58302;51.446;-2.000;2023-02-14T13:29:09;102035.75;;;13.99;100.00
55301;BME280;58302;51.446;-2.000;2023-02-14T13:31:36;102034.59;;;13.78;100.00
55301;BME280;58302;51.446;-2.000;2023-02-14T13:34:12;102030.88;;;13.84;100.00
55301;BME280;58302;51.446;-2.000;2023-02-14T13:36:42;102023.31;;;14.25;100.00
55301;BME280;58302;51.446;-2.000;2023-02-14T13:39:22;102009.16;;;14.67;100.00
55301;BME280;58302;51.446;-2.000;2023-02-14T13:41:49;102018.81;;;14.36;100.00
55301;BME280;58302;51.446;-2.000;2023-02-14T13:44:46;102007.00;;;14.13;100.00
55301;BME280;58302;51.446;-2.000;2023-02-14T13:49:49;101998.06;;;14.18;100.00
55301;BME280;58302;51.446;-2.000;2023-02-14T13:55:07;101992.59;;;14.79;100.00
55301;BME280;58302;51.446;-2.000;2023-02-14T13:57:35;101988.78;;;14.58;100.00
55301;BME280;58302;51.446;-2.000;2023-02-14T14:02:45;101990.63;;;14.52;100.00
55301;BME280;58302;51.446;-2.000;2023-02-14T14:11:02;101974.72;;;14.32;100.00
55301;BME280;58302;51.446;-2.000;2023-02-14T14:22:03;101972.91;;;13.65;100.00
55301;BME280;58302;51.446;-2.000;2023-02-14T14:24:34;101972.56;;;13.62;100.00
55301;BME280;58302;51.446;-2.000;2023-02-14T14:27:21;101964.72;;;13.82;100.00
55301;BME280;58302;51.446;-2.000;2023-02-14T14:30:05;101959.69;;;13.74;100.00
55301;BME280;58302;51.446;-2.000;2023-02-14T14:32:36;101956.94;;;13.74;100.00
55301;BME280;58302;51.446;-2.000;2023-02-14T14:35:06;101958.09;;;13.61;100.00
55301;BME280;58302;51.446;-2.000;2023-02-14T14:37:35;101953.94;;;13.25;100.00
55301;BME280;58302;51.446;-2.000;2023-02-14T14:40:04;101952.00;;;12.69;100.00
55301;BME280;58302;51.446;-2.000;2023-02-14T14:42:36;101949.38;;;12.33;100.00
55301;BME280;58302;51.446;-2.000;2023-02-14T14:45:07;101947.75;;;12.21;100.00
55301;BME280;58302;51.446;-2.000;2023-02-14T14:47:39;101948.22;;;12.18;100.00
55301;BME280;58302;51.446;-2.000;2023-02-14T14:50:13;101942.66;;;12.12;100.00
55301;BME280;58302;51.446;-2.000;2023-02-14T14:52:43;101939.25;;;12.05;100.00
55301;BME280;58302;51.446;-2.000;2023-02-14T14:55:23;101936.88;;;11.97;100.00
55301;BME280;58302;51.446;-2.000;2023-02-14T14:57:56;101938.19;;;11.95;100.00
55301;BME280;58302;51.446;-2.000;2023-02-14T15:05:49;101932.72;;;11.71;100.00